South Dos Palos, California
Current Conditions -  °F | °C
As of 12:53 AM on Tuesday 21 Oct 2014 (Local Time) from KMCE Reporting Station
Clear Clear  
Wind Chill: 60°   Ceiling: Unl
Heat Index: 60°   Visibility: 10mi
Dew Point: 51°   Wind: 10mph
Humidity: 72%   Direction: 320°NW
Pressure: 30.05"   Gusts: NA
Location:  36.96°N, 120.65°W
Report Text: KMCE 210753Z AUTO 32009KT 10SM CLR 16/11 A3005 RMK AO2 SLP175 T01560106 402720139
Loading
Personal Weather Stations






























Interactive Weather Map
Tropical Storm Tracking
New forecast layout! Learn more

10-Day Weather Forecast

Advertisements
Track Severe Weather on mobile